createdAt,value
2019-03-19T00:00:14.612Z,7.60
2019-03-19T00:02:43.181Z,6.70
2019-03-19T00:05:11.548Z,5.27
2019-03-19T00:07:39.831Z,4.93
2019-03-19T00:10:09.273Z,4.70
2019-03-19T00:12:37.923Z,4.43
2019-03-19T00:15:09.316Z,4.70
2019-03-19T00:17:37.873Z,4.63
2019-03-19T00:20:12.290Z,4.20
2019-03-19T00:22:40.933Z,5.17
2019-03-19T00:25:09.375Z,4.70
2019-03-19T00:27:37.659Z,4.27
2019-03-19T00:30:16.353Z,4.10
2019-03-19T00:32:44.624Z,3.97
2019-03-19T00:35:13.262Z,4.40
2019-03-19T00:37:41.536Z,4.60
2019-03-19T00:40:14.218Z,4.37
2019-03-19T00:42:42.860Z,4.43
2019-03-19T00:45:12.690Z,5.47
2019-03-19T00:47:40.973Z,4.30
2019-03-19T00:50:16.387Z,4.17
2019-03-19T00:52:44.745Z,3.93
2019-03-19T00:55:13.554Z,4.70
2019-03-19T00:57:42.140Z,4.67
2019-03-19T01:00:12.965Z,4.67
2019-03-19T01:02:41.291Z,4.40
2019-03-19T01:05:10.473Z,5.10
2019-03-19T01:07:38.836Z,4.67
2019-03-19T01:10:10.295Z,5.03
2019-03-19T01:12:38.612Z,4.27
2019-03-19T01:15:09.798Z,5.30
2019-03-19T01:17:38.092Z,4.80
2019-03-19T01:20:09.418Z,5.67
2019-03-19T01:22:37.713Z,5.17
2019-03-19T01:25:08.435Z,4.70
2019-03-19T01:27:36.739Z,5.40
2019-03-19T01:30:13.574Z,5.13
2019-03-19T01:32:41.866Z,4.90
2019-03-19T01:35:10.320Z,5.07
2019-03-19T01:37:38.666Z,5.00
2019-03-19T01:40:09.301Z,4.93
2019-03-19T01:42:37.578Z,4.27
2019-03-19T01:45:08.583Z,4.30
2019-03-19T01:47:36.862Z,4.47
2019-03-19T01:50:10.301Z,4.30
2019-03-19T01:52:38.581Z,4.47
2019-03-19T01:55:09.677Z,4.43
2019-03-19T01:57:37.956Z,4.63
2019-03-19T02:00:09.158Z,4.63
2019-03-19T02:02:37.436Z,4.57
2019-03-19T02:05:06.401Z,4.00
2019-03-19T02:07:34.672Z,4.27
2019-03-19T02:10:03.199Z,3.73
2019-03-19T02:12:31.477Z,4.23
2019-03-19T02:14:59.771Z,3.73
2019-03-19T02:17:28.074Z,3.80
2019-03-19T02:19:56.339Z,4.00
2019-03-19T02:22:24.639Z,3.97
2019-03-19T02:24:53.174Z,3.60
2019-03-19T02:27:21.470Z,3.60
2019-03-19T02:29:49.755Z,3.97
2019-03-19T02:32:18.042Z,3.63
2019-03-19T02:34:46.316Z,3.60
2019-03-19T02:37:14.626Z,3.77
2019-03-19T02:39:43.141Z,4.20
2019-03-19T02:42:11.424Z,4.13
2019-03-19T02:44:39.702Z,3.73
2019-03-19T02:47:08.279Z,4.20
2019-03-19T02:49:36.559Z,4.20
2019-03-19T02:52:04.918Z,4.10
2019-03-19T02:54:33.188Z,3.50
2019-03-19T02:57:01.472Z,3.93
2019-03-19T02:59:29.757Z,3.90
2019-03-19T03:01:58.059Z,4.80
2019-03-19T03:04:26.340Z,3.63
2019-03-19T03:06:54.621Z,4.20
2019-03-19T03:09:22.918Z,3.40
2019-03-19T03:11:51.619Z,3.50
2019-03-19T03:14:20.093Z,4.27
2019-03-19T03:16:48.381Z,4.33
2019-03-19T03:19:16.674Z,3.57
2019-03-19T03:21:44.945Z,3.93
2019-03-19T03:24:13.313Z,3.10
2019-03-19T03:26:47.698Z,3.77
2019-03-19T03:29:11.602Z,3.50
2019-03-19T03:31:39.876Z,3.27
2019-03-19T03:34:08.168Z,3.23
2019-03-19T03:36:36.454Z,3.67
2019-03-19T03:39:06.991Z,3.73
2019-03-19T03:41:35.267Z,3.13
2019-03-19T03:44:03.640Z,3.63
2019-03-19T03:46:32.235Z,3.33
2019-03-19T03:49:00.514Z,3.27
2019-03-19T03:51:28.811Z,2.97
2019-03-19T03:53:57.091Z,4.37
2019-03-19T03:56:25.384Z,3.47
2019-03-19T03:59:00.409Z,3.90
2019-03-19T04:01:23.685Z,3.47
2019-03-19T04:03:52.123Z,3.37
2019-03-19T04:06:20.492Z,3.70
2019-03-19T04:08:49.080Z,4.00
2019-03-19T04:11:17.373Z,3.50
2019-03-19T04:13:45.660Z,3.27
2019-03-19T04:16:13.943Z,3.40
2019-03-19T04:18:42.224Z,3.33
2019-03-19T04:21:10.502Z,3.00
2019-03-19T04:23:38.798Z,3.37
2019-03-19T04:26:07.443Z,2.63
2019-03-19T04:28:35.730Z,3.30
2019-03-19T04:31:04.086Z,3.23
2019-03-19T04:33:32.389Z,3.50
2019-03-19T04:36:00.656Z,3.80
2019-03-19T04:38:28.953Z,3.63
2019-03-19T04:40:57.226Z,2.93
2019-03-19T04:43:25.522Z,3.23
2019-03-19T04:45:53.795Z,3.60
2019-03-19T04:48:22.075Z,3.30
2019-03-19T04:50:51.240Z,2.70
2019-03-19T04:53:19.518Z,3.23
2019-03-19T04:55:48.092Z,3.50
2019-03-19T04:58:16.373Z,3.20
2019-03-19T05:00:44.672Z,3.77
2019-03-19T05:03:13.015Z,3.50
2019-03-19T05:05:41.307Z,3.50
2019-03-19T05:08:09.859Z,4.07
2019-03-19T05:10:38.149Z,3.37
2019-03-19T05:13:06.426Z,3.67
2019-03-19T05:15:34.720Z,3.80
2019-03-19T05:18:03.268Z,3.33
2019-03-19T05:20:31.959Z,3.77
2019-03-19T05:23:00.242Z,3.83
2019-03-19T05:25:28.529Z,4.20
2019-03-19T05:27:56.831Z,3.50
2019-03-19T05:30:25.122Z,3.70
2019-03-19T05:32:53.415Z,4.00
2019-03-19T05:35:21.693Z,3.33
2019-03-19T05:37:49.985Z,4.40
2019-03-19T05:40:19.333Z,3.87
2019-03-19T05:42:47.636Z,3.87
2019-03-19T05:45:16.266Z,3.90
2019-03-19T05:47:44.965Z,3.87
2019-03-19T05:50:19.100Z,4.07
2019-03-19T05:52:48.611Z,3.83
2019-03-19T05:55:17.457Z,3.60
2019-03-19T05:57:50.060Z,3.80
2019-03-19T06:00:17.738Z,3.47
2019-03-19T06:02:46.030Z,3.53
2019-03-19T06:05:14.389Z,3.80
2019-03-19T06:07:42.944Z,3.33
2019-03-19T06:10:13.773Z,4.40
2019-03-19T06:12:42.112Z,5.17
2019-03-19T06:15:12.190Z,4.90
2019-03-19T06:17:40.537Z,4.43
2019-03-19T06:20:14.250Z,4.90
2019-03-19T06:22:42.515Z,4.70
2019-03-19T06:25:11.869Z,5.10
2019-03-19T06:27:40.136Z,4.93
2019-03-19T06:30:18.482Z,4.70
2019-03-19T06:32:46.754Z,4.57
2019-03-19T06:35:15.884Z,4.67
2019-03-19T06:37:44.476Z,4.27
2019-03-19T06:40:17.072Z,5.73
2019-03-19T06:42:45.355Z,5.27
2019-03-19T06:45:15.163Z,4.93
2019-03-19T06:47:43.527Z,5.53
2019-03-19T06:50:13.866Z,5.13
2019-03-19T06:52:42.145Z,4.90
2019-03-19T06:55:14.253Z,4.93
2019-03-19T06:57:42.547Z,5.20
2019-03-19T07:00:25.977Z,5.33
2019-03-19T07:02:54.276Z,4.70
2019-03-19T07:05:23.163Z,4.83
2019-03-19T07:07:51.459Z,4.80
2019-03-19T07:10:20.795Z,4.63
2019-03-19T07:12:49.053Z,4.93
2019-03-19T07:15:21.123Z,5.13
2019-03-19T07:17:49.432Z,4.90
2019-03-19T07:20:19.253Z,5.17
2019-03-19T07:22:47.525Z,5.30
2019-03-19T07:25:15.909Z,5.40
2019-03-19T07:27:44.609Z,5.47
2019-03-19T07:30:19.984Z,5.20
2019-03-19T07:32:48.263Z,4.97
2019-03-19T07:35:16.627Z,4.70
2019-03-19T07:37:45.213Z,5.43
2019-03-19T07:40:15.398Z,5.33
2019-03-19T07:42:43.679Z,4.60
2019-03-19T07:45:14.533Z,4.80
2019-03-19T07:47:42.815Z,4.87
2019-03-19T07:50:21.762Z,5.07
2019-03-19T07:52:50.046Z,5.53
2019-03-19T07:55:18.341Z,4.90
2019-03-19T07:57:46.697Z,4.40
2019-03-19T08:00:16.396Z,5.10
2019-03-19T08:02:45.296Z,5.13
2019-03-19T08:05:13.798Z,4.97
2019-03-19T08:07:42.072Z,4.73
2019-03-19T08:10:14.441Z,4.97
2019-03-19T08:12:43.038Z,5.13
2019-03-19T08:15:15.545Z,5.20
2019-03-19T08:17:44.469Z,4.97
2019-03-19T08:20:17.423Z,6.30
2019-03-19T08:22:45.785Z,6.00
2019-03-19T08:25:15.111Z,6.00
2019-03-19T08:27:43.802Z,5.63
2019-03-19T08:30:18.216Z,6.00
2019-03-19T08:32:46.510Z,5.87
2019-03-19T08:35:14.803Z,5.43
2019-03-19T08:37:43.165Z,5.50
2019-03-19T08:40:18.407Z,6.17
2019-03-19T08:42:46.709Z,5.87
2019-03-19T08:45:17.211Z,5.73
2019-03-19T08:47:45.508Z,5.37
2019-03-19T08:50:20.612Z,6.27
2019-03-19T08:52:48.914Z,5.43
2019-03-19T08:55:17.487Z,6.13
2019-03-19T08:57:46.066Z,5.90
2019-03-19T09:00:21.427Z,6.37
2019-03-19T09:02:50.085Z,6.37
2019-03-19T09:05:18.365Z,6.53
2019-03-19T09:07:46.665Z,5.47
2019-03-19T09:10:16.281Z,6.47
2019-03-19T09:12:44.832Z,5.47
2019-03-19T09:15:17.201Z,4.87
2019-03-19T09:17:45.831Z,5.13
2019-03-19T09:20:15.054Z,4.70
2019-03-19T09:22:43.425Z,5.40
2019-03-19T09:25:12.244Z,5.37
2019-03-19T09:27:41.048Z,5.37
2019-03-19T09:30:19.998Z,5.93
2019-03-19T09:32:48.296Z,5.43
2019-03-19T09:35:16.572Z,5.70
2019-03-19T09:37:57.197Z,5.03
2019-03-19T09:40:16.086Z,5.33
2019-03-19T09:42:44.382Z,5.43
2019-03-19T09:45:14.008Z,5.40
2019-03-19T09:47:42.620Z,5.00
2019-03-19T09:50:18.883Z,3.83
2019-03-19T09:52:47.171Z,4.57
2019-03-19T09:55:15.543Z,4.13
2019-03-19T09:57:43.843Z,3.80
2019-03-19T10:00:19.994Z,3.40
2019-03-19T10:02:48.664Z,2.90
2019-03-19T10:05:17.493Z,3.57
2019-03-19T10:07:46.134Z,2.90
2019-03-19T10:10:16.383Z,3.50
2019-03-19T10:12:44.654Z,2.70
2019-03-19T10:15:13.418Z,3.00
2019-03-19T10:17:41.688Z,3.17
2019-03-19T10:20:13.455Z,3.47
2019-03-19T10:22:41.733Z,4.00
2019-03-19T10:25:14.938Z,3.30
2019-03-19T10:27:43.508Z,3.23
2019-03-19T10:30:21.596Z,3.60
2019-03-19T10:32:49.940Z,3.33
2019-03-19T10:35:18.503Z,3.73
2019-03-19T10:37:46.858Z,2.80
2019-03-19T10:40:19.970Z,3.30
2019-03-19T10:42:48.218Z,3.00
2019-03-19T10:45:17.767Z,3.50
2019-03-19T10:47:46.045Z,2.83
2019-03-19T10:50:18.953Z,3.13
2019-03-19T10:52:47.236Z,3.40
2019-03-19T10:55:15.837Z,3.03
2019-03-19T10:57:44.539Z,2.80
2019-03-19T11:00:26.344Z,3.10
2019-03-19T11:02:55.027Z,2.97
2019-03-19T11:05:24.154Z,3.07
2019-03-19T11:07:52.769Z,2.60
2019-03-19T11:10:21.185Z,2.80
2019-03-19T11:12:49.476Z,3.00
2019-03-19T11:15:19.659Z,3.13
2019-03-19T11:17:47.956Z,3.50
2019-03-19T11:20:20.119Z,3.03
2019-03-19T11:22:48.421Z,3.67
2019-03-19T11:25:22.742Z,3.53
2019-03-19T11:27:51.030Z,3.43
2019-03-19T11:30:30.183Z,3.47
2019-03-19T11:32:58.483Z,3.67
2019-03-19T11:35:26.921Z,3.37
2019-03-19T11:37:55.200Z,3.50
2019-03-19T11:40:25.619Z,4.07
2019-03-19T11:42:53.556Z,4.13
2019-03-19T11:45:22.875Z,4.07
2019-03-19T11:47:51.504Z,4.03
2019-03-19T11:50:32.148Z,3.37
2019-03-19T11:53:00.404Z,3.73
2019-03-19T11:55:28.696Z,3.33
2019-03-19T11:57:57.790Z,3.80
2019-03-19T12:00:36.604Z,4.03
2019-03-19T12:03:12.632Z,3.97
2019-03-19T12:05:36.061Z,3.43
2019-03-19T12:08:05.010Z,3.30
2019-03-19T12:10:33.574Z,3.93
2019-03-19T12:13:01.868Z,3.53
2019-03-19T12:15:30.428Z,3.63
2019-03-19T12:17:58.735Z,3.30
2019-03-19T12:20:27.017Z,3.63
2019-03-19T12:22:55.311Z,4.03
2019-03-19T12:25:23.593Z,3.37
2019-03-19T12:27:51.885Z,3.13
2019-03-19T12:30:23.729Z,2.97
2019-03-19T12:32:51.598Z,2.67
2019-03-19T12:35:20.718Z,2.63
2019-03-19T12:37:49.090Z,2.97
2019-03-19T12:40:22.236Z,3.43
2019-03-19T12:42:50.602Z,3.63
2019-03-19T12:45:23.262Z,3.00
2019-03-19T12:47:51.637Z,3.03
2019-03-19T12:50:22.471Z,3.10
2019-03-19T12:52:50.743Z,3.30
2019-03-19T12:55:19.041Z,3.67
2019-03-19T12:57:47.635Z,2.97
2019-03-19T13:00:34.089Z,3.20
2019-03-19T13:02:55.709Z,4.20
2019-03-19T13:05:24.004Z,3.40
2019-03-19T13:07:52.375Z,3.07
2019-03-19T13:10:25.069Z,3.53
2019-03-19T13:12:53.356Z,2.70
2019-03-19T13:15:21.822Z,2.90
2019-03-19T13:17:50.517Z,2.70
2019-03-19T13:20:19.959Z,3.30
2019-03-19T13:22:48.299Z,3.13
2019-03-19T13:25:24.744Z,3.10
2019-03-19T13:27:53.477Z,2.97
2019-03-19T13:30:24.039Z,3.70
2019-03-19T13:32:52.437Z,2.73
2019-03-19T13:35:20.728Z,3.60
2019-03-19T13:37:49.017Z,3.63
2019-03-19T13:40:18.264Z,3.00
2019-03-19T13:42:46.618Z,2.80
2019-03-19T13:45:19.974Z,3.10
2019-03-19T13:47:48.252Z,2.90
2019-03-19T13:50:18.031Z,2.90
2019-03-19T13:52:46.391Z,2.60
2019-03-19T13:55:20.811Z,2.60
2019-03-19T13:57:49.182Z,3.50
2019-03-19T14:00:18.414Z,3.13
2019-03-19T14:02:46.779Z,2.90
2019-03-19T14:05:15.594Z,2.93
2019-03-19T14:07:43.894Z,3.00
2019-03-19T14:10:15.183Z,3.13
2019-03-19T14:12:43.562Z,3.57
2019-03-19T14:15:14.671Z,4.07
2019-03-19T14:17:43.423Z,3.47
2019-03-19T14:20:16.012Z,3.40
2019-03-19T14:22:45.449Z,3.80
2019-03-19T14:25:15.274Z,3.50
2019-03-19T14:27:44.153Z,3.00
2019-03-19T14:30:20.279Z,3.00
2019-03-19T14:32:48.563Z,2.90
2019-03-19T14:35:16.859Z,3.30
2019-03-19T14:37:45.419Z,2.97
2019-03-19T14:40:22.661Z,2.93
2019-03-19T14:42:51.264Z,2.80
2019-03-19T14:45:19.630Z,3.40
2019-03-19T14:47:47.910Z,2.90
2019-03-19T14:50:20.643Z,2.80
2019-03-19T14:52:48.993Z,3.10
2019-03-19T14:55:17.283Z,3.23
2019-03-19T14:57:46.005Z,3.00
2019-03-19T15:00:16.892Z,3.20
2019-03-19T15:02:45.236Z,3.13
2019-03-19T15:05:17.290Z,2.70
2019-03-19T15:07:45.730Z,3.20
2019-03-19T15:10:15.765Z,3.13
2019-03-19T15:12:44.362Z,3.17
2019-03-19T15:15:20.750Z,3.50
2019-03-19T15:17:49.401Z,2.93
2019-03-19T15:20:21.477Z,2.90
2019-03-19T15:22:50.076Z,2.80
2019-03-19T15:25:18.373Z,2.73
2019-03-19T15:27:46.730Z,2.97
2019-03-19T15:30:19.698Z,2.57
2019-03-19T15:32:48.217Z,2.93
2019-03-19T15:35:16.970Z,2.53
2019-03-19T15:37:45.546Z,3.30
2019-03-19T15:40:15.079Z,3.20
2019-03-19T15:42:43.405Z,3.00
2019-03-19T15:45:17.498Z,2.97
2019-03-19T15:47:46.132Z,3.00
2019-03-19T15:50:15.669Z,3.20
2019-03-19T15:52:44.193Z,3.43
2019-03-19T15:55:14.210Z,3.17
2019-03-19T15:57:42.507Z,3.00
2019-03-19T16:00:19.185Z,3.00
2019-03-19T16:02:47.490Z,2.40
2019-03-19T16:05:15.800Z,2.87
2019-03-19T16:07:44.431Z,2.60
2019-03-19T16:10:14.719Z,2.57
2019-03-19T16:12:43.019Z,2.73
2019-03-19T16:15:13.351Z,3.33
2019-03-19T16:17:41.939Z,2.43
2019-03-19T16:20:15.766Z,2.53
2019-03-19T16:22:44.124Z,2.93
2019-03-19T16:25:12.762Z,3.00
2019-03-19T16:27:41.039Z,2.27
2019-03-19T16:30:15.034Z,2.50
2019-03-19T16:32:43.400Z,2.90
2019-03-19T16:35:12.331Z,3.00
2019-03-19T16:37:41.049Z,2.77
2019-03-19T16:40:18.166Z,2.53
2019-03-19T16:42:46.536Z,2.70
2019-03-19T16:45:14.911Z,2.80
2019-03-19T16:47:43.474Z,2.80
2019-03-19T16:50:14.679Z,2.83
2019-03-19T16:52:43.033Z,2.70
2019-03-19T16:55:14.028Z,2.93
2019-03-19T16:57:42.310Z,2.53
2019-03-19T17:00:21.618Z,2.50
2019-03-19T17:02:49.912Z,3.10
2019-03-19T17:05:18.392Z,2.90
2019-03-19T17:07:46.679Z,3.60
2019-03-19T17:10:20.022Z,2.93
2019-03-19T17:12:48.403Z,3.10
2019-03-19T17:15:17.368Z,3.10
2019-03-19T17:17:46.036Z,3.00
2019-03-19T17:20:19.228Z,3.17
2019-03-19T17:22:47.600Z,3.37
2019-03-19T17:25:18.784Z,3.03
2019-03-19T17:27:47.098Z,3.27
2019-03-19T17:30:23.879Z,3.40
2019-03-19T17:32:52.318Z,3.00
2019-03-19T17:35:20.838Z,3.00
2019-03-19T17:37:49.149Z,3.47
2019-03-19T17:40:17.494Z,3.40
2019-03-19T17:42:45.799Z,3.53
2019-03-19T17:45:15.415Z,3.53
2019-03-19T17:47:43.722Z,4.17
2019-03-19T17:50:18.039Z,4.03
2019-03-19T17:52:47.184Z,3.60
2019-03-19T17:55:15.889Z,3.57
2019-03-19T17:57:44.204Z,3.47
2019-03-19T18:00:16.910Z,3.60
2019-03-19T18:02:45.221Z,3.57
2019-03-19T18:05:13.589Z,3.30
2019-03-19T18:07:41.872Z,3.30
2019-03-19T18:10:11.911Z,3.47
2019-03-19T18:12:40.186Z,2.93
2019-03-19T18:15:14.464Z,2.67
2019-03-19T18:17:42.744Z,3.30
2019-03-19T18:20:18.072Z,3.23
2019-03-19T18:22:46.620Z,3.27
2019-03-19T18:25:18.952Z,3.00
2019-03-19T18:27:47.254Z,3.13
2019-03-19T18:30:25.712Z,3.53
2019-03-19T18:32:54.058Z,4.03
2019-03-19T18:35:22.421Z,3.97
2019-03-19T18:37:50.988Z,3.40
2019-03-19T18:40:20.140Z,3.50
2019-03-19T18:42:48.404Z,3.70
2019-03-19T18:45:17.455Z,3.27
2019-03-19T18:47:46.037Z,6.23
2019-03-19T18:50:18.187Z,4.40
2019-03-19T18:52:46.489Z,4.30
2019-03-19T18:55:14.899Z,5.13
2019-03-19T18:57:43.260Z,5.87
2019-03-19T19:00:16.859Z,6.83
2019-03-19T19:02:50.023Z,7.83
2019-03-19T19:05:16.285Z,7.23
2019-03-19T19:07:44.569Z,6.93
2019-03-19T19:10:16.835Z,5.43
2019-03-19T19:12:45.137Z,5.70
2019-03-19T19:15:16.583Z,5.13
2019-03-19T19:17:44.875Z,4.97
2019-03-19T19:20:14.392Z,4.90
2019-03-19T19:22:42.684Z,4.97
2019-03-19T19:25:13.111Z,5.33
2019-03-19T19:27:41.403Z,5.53
2019-03-19T19:30:13.480Z,5.53
2019-03-19T19:32:41.779Z,5.03
2019-03-19T19:35:10.123Z,4.70
2019-03-19T19:37:38.424Z,5.30
2019-03-19T19:40:12.411Z,6.77
2019-03-19T19:42:40.704Z,7.03
2019-03-19T19:45:11.426Z,7.27
2019-03-19T19:47:39.911Z,6.60
2019-03-19T19:50:10.969Z,7.03
2019-03-19T19:52:39.265Z,7.40
2019-03-19T19:55:09.582Z,6.60
2019-03-19T19:57:38.368Z,6.80
2019-03-19T20:00:21.149Z,6.70
2019-03-19T20:02:49.589Z,7.57
2019-03-19T20:05:17.961Z,7.97
2019-03-19T20:07:46.408Z,8.33
2019-03-19T20:10:20.364Z,7.00
2019-03-19T20:12:48.662Z,6.77
2019-03-19T20:15:18.003Z,7.17
2019-03-19T20:17:46.359Z,7.43
2019-03-19T20:20:30.296Z,8.37
2019-03-19T20:22:58.582Z,7.33
2019-03-19T20:25:26.879Z,8.27
2019-03-19T20:27:55.159Z,7.63
2019-03-19T20:30:47.439Z,7.67
2019-03-19T20:33:24.369Z,7.37
2019-03-19T20:35:46.735Z,7.40
2019-03-19T20:38:14.983Z,7.73
2019-03-19T20:40:43.287Z,7.60
2019-03-19T20:43:11.836Z,7.27
2019-03-19T20:45:40.129Z,7.07
2019-03-19T20:48:08.409Z,6.63
2019-03-19T20:50:38.808Z,7.07
2019-03-19T20:53:07.080Z,6.07
2019-03-19T20:55:35.398Z,6.37
2019-03-19T20:58:03.734Z,6.30
2019-03-19T21:00:32.013Z,7.00
2019-03-19T21:03:00.315Z,6.87
2019-03-19T21:05:28.614Z,9.13
2019-03-19T21:07:57.252Z,10.03
2019-03-19T21:10:26.306Z,7.03
2019-03-19T21:12:54.692Z,5.73
2019-03-19T21:15:28.322Z,5.13
2019-03-19T21:17:56.752Z,5.60
2019-03-19T21:20:25.031Z,4.97
2019-03-19T21:22:53.470Z,4.47
2019-03-19T21:25:21.761Z,5.20
2019-03-19T21:27:50.119Z,4.87
2019-03-19T21:30:22.552Z,4.60
2019-03-19T21:32:50.893Z,5.30
2019-03-19T21:35:23.238Z,5.47
2019-03-19T21:37:51.588Z,5.00
2019-03-19T21:40:19.881Z,6.00
2019-03-19T21:42:48.293Z,6.17
2019-03-19T21:45:18.143Z,6.80
2019-03-19T21:47:48.963Z,7.20
2019-03-19T21:50:19.764Z,6.30
2019-03-19T21:52:48.125Z,6.87
2019-03-19T21:55:16.394Z,7.03
2019-03-19T21:57:44.690Z,6.83
2019-03-19T22:00:19.005Z,6.23
2019-03-19T22:02:47.371Z,8.07
2019-03-19T22:05:15.718Z,8.67
2019-03-19T22:07:44.089Z,8.80
2019-03-19T22:10:14.891Z,7.60
2019-03-19T22:12:43.562Z,6.70
2019-03-19T22:15:20.216Z,7.00
2019-03-19T22:17:48.505Z,6.33
2019-03-19T22:20:17.151Z,7.70
2019-03-19T22:22:45.436Z,7.50
2019-03-19T22:25:14.960Z,7.40
2019-03-19T22:27:43.240Z,7.37
2019-03-19T22:30:16.423Z,7.60
2019-03-19T22:32:44.776Z,7.47
2019-03-19T22:35:13.220Z,6.70
2019-03-19T22:37:41.893Z,7.27
2019-03-19T22:40:17.134Z,6.33
2019-03-19T22:42:45.481Z,6.67
2019-03-19T22:45:15.197Z,7.20
2019-03-19T22:47:43.836Z,6.60
2019-03-19T22:50:14.258Z,6.77
2019-03-19T22:52:42.622Z,6.90
2019-03-19T22:55:12.444Z,5.70
2019-03-19T22:57:40.804Z,6.17
2019-03-19T23:00:31.542Z,6.90
2019-03-19T23:02:59.889Z,6.80
2019-03-19T23:05:28.165Z,5.93
2019-03-19T23:07:56.457Z,6.30
2019-03-19T23:10:24.744Z,6.63
2019-03-19T23:12:53.047Z,6.03
2019-03-19T23:15:21.313Z,6.30
2019-03-19T23:17:49.674Z,6.57
2019-03-19T23:20:17.946Z,7.00
2019-03-19T23:22:46.293Z,7.40
2019-03-19T23:25:14.994Z,7.13
2019-03-19T23:27:43.291Z,7.37
2019-03-19T23:30:22.645Z,6.93
2019-03-19T23:32:50.940Z,6.90
2019-03-19T23:35:19.225Z,7.17
2019-03-19T23:37:47.500Z,6.97
2019-03-19T23:40:19.879Z,8.07
2019-03-19T23:42:48.491Z,7.43
2019-03-19T23:45:16.788Z,7.33
2019-03-19T23:47:45.073Z,6.87
2019-03-19T23:50:14.943Z,7.27
2019-03-19T23:52:43.287Z,6.43
2019-03-19T23:55:11.654Z,6.83
2019-03-19T23:57:40.314Z,5.83
